createdAt,value
2019-04-30T00:01:39.556Z,"    0"
2019-04-30T00:06:39.409Z,"    0"
2019-04-30T00:11:36.286Z,"    0"
2019-04-30T00:16:36.360Z,"    0"
2019-04-30T00:21:31.015Z,"    0"
2019-04-30T00:26:26.815Z,"    0"
2019-04-30T00:31:27.264Z,"    0"
2019-04-30T00:36:29.087Z,"    0"
2019-04-30T00:41:25.625Z,"    0"
2019-04-30T00:46:25.005Z,"    0"
2019-04-30T00:51:21.588Z,"    0"
2019-04-30T00:56:24.751Z,"    0"
2019-04-30T01:01:19.060Z,"    0"
2019-04-30T01:06:17.246Z,"    0"
2019-04-30T01:11:15.427Z,"    0"
2019-04-30T01:16:10.944Z,"    0"
2019-04-30T01:21:11.153Z,"    0"
2019-04-30T01:26:08.646Z,"    0"
2019-04-30T01:31:04.376Z,"    0"
2019-04-30T01:36:04.163Z,"    0"
2019-04-30T01:40:59.659Z,"    0"
2019-04-30T01:45:55.559Z,"    0"
2019-04-30T01:50:51.056Z,"    0"
2019-04-30T01:55:47.072Z,"    0"
2019-04-30T02:00:42.748Z,"    0"
2019-04-30T02:05:38.766Z,"    0"
2019-04-30T02:10:34.792Z,"    0"
2019-04-30T02:15:31.262Z,"    0"
2019-04-30T02:20:28.692Z,"    0"
2019-04-30T02:25:25.567Z,"    0"
2019-04-30T02:30:21.263Z,"    0"
2019-04-30T02:35:19.503Z,"    0"
2019-04-30T02:40:14.783Z,"    0"
2019-04-30T02:45:10.627Z,"    0"
2019-04-30T02:50:15.499Z,"    0"
2019-04-30T02:55:05.165Z,"    0"
2019-04-30T03:00:01.576Z,"    0"
2019-04-30T03:05:00.005Z,"    0"
2019-04-30T03:09:55.415Z,"    0"
2019-04-30T03:14:50.886Z,"    0"
2019-04-30T03:19:46.931Z,"    0"
2019-04-30T03:24:44.401Z,"    0"
2019-04-30T03:29:40.668Z,"    0"
2019-04-30T03:34:41.375Z,"    4"
2019-04-30T03:39:39.679Z,"    8"
2019-04-30T03:44:34.641Z,"   16"
2019-04-30T03:49:30.333Z,"   40"
2019-04-30T03:54:25.985Z,"   68"
2019-04-30T03:59:21.671Z,"  116"
2019-04-30T04:04:20.096Z,"  188"
2019-04-30T04:09:15.618Z,"  280"
2019-04-30T04:14:12.624Z,"  388"
2019-04-30T04:19:09.634Z,"  516"
2019-04-30T04:24:04.832Z,"  668"
2019-04-30T04:29:00.945Z,"  844"
2019-04-30T04:33:59.813Z,"  996"
2019-04-30T04:38:55.344Z," 1088"
2019-04-30T04:43:51.396Z," 1124"
2019-04-30T04:48:49.434Z," 1360"
2019-04-30T04:53:44.996Z," 1344"
2019-04-30T04:58:40.845Z," 1220"
2019-04-30T05:03:36.618Z," 1792"
2019-04-30T05:08:32.676Z," 1724"
2019-04-30T05:13:29.628Z," 2316"
2019-04-30T05:18:25.253Z," 2752"
2019-04-30T05:23:22.008Z," 4196"
2019-04-30T05:28:19.046Z," 3732"
2019-04-30T05:33:14.481Z," 4776"
2019-04-30T05:38:10.654Z," 4004"
2019-04-30T05:43:09.041Z," 4364"
2019-04-30T05:48:06.131Z," 5096"
2019-04-30T05:53:03.180Z," 4504"
2019-04-30T05:58:01.482Z," 4200"
2019-04-30T06:02:56.670Z," 4920"
2019-04-30T06:07:52.569Z," 6360"
2019-04-30T06:12:49.382Z," 6556"
2019-04-30T06:17:57.049Z," 6984"
2019-04-30T06:22:44.830Z," 5200"
2019-04-30T06:27:40.720Z," 4184"
2019-04-30T06:32:36.824Z," 7328"
2019-04-30T06:37:33.873Z," 8852"
2019-04-30T06:42:30.194Z," 6796"
2019-04-30T06:47:33.045Z," 7160"
2019-04-30T06:52:26.153Z," 7264"
2019-04-30T06:57:22.173Z," 8936"
2019-04-30T07:02:19.816Z," 9480"
2019-04-30T07:07:21.334Z,10036
2019-04-30T07:12:25.496Z," 9664"
2019-04-30T07:17:14.225Z," 9048"
2019-04-30T07:22:09.916Z," 9840"
2019-04-30T07:27:05.806Z,13044
2019-04-30T07:32:02.714Z,17120
2019-04-30T07:37:11.800Z,14224
2019-04-30T07:42:00.085Z," 9772"
2019-04-30T07:46:55.913Z," 9644"
2019-04-30T07:51:52.890Z,23968
2019-04-30T07:56:50.634Z,14572
2019-04-30T08:02:03.740Z,33568
2019-04-30T08:06:45.848Z," 9860"
2019-04-30T08:11:43.827Z,49024
2019-04-30T08:16:42.101Z,16204
2019-04-30T08:21:38.880Z,21184
2019-04-30T08:26:36.043Z,36576
2019-04-30T08:31:33.256Z,38336
2019-04-30T08:36:33.002Z,31552
2019-04-30T08:41:29.285Z,34944
2019-04-30T08:46:25.368Z,20672
2019-04-30T08:51:20.485Z,18176
2019-04-30T08:56:15.318Z,11276
2019-04-30T09:01:13.685Z,10260
2019-04-30T09:06:09.411Z,11112
2019-04-30T09:11:05.204Z,12436
2019-04-30T09:16:01.014Z,11180
2019-04-30T09:21:04.148Z,21664
2019-04-30T09:25:58.625Z,12836
2019-04-30T09:30:54.065Z,13820
2019-04-30T09:35:52.006Z,49152
2019-04-30T09:40:50.707Z,37696
2019-04-30T09:45:49.580Z,66752
2019-04-30T09:50:46.429Z,65312
2019-04-30T09:55:44.429Z,67072
2019-04-30T10:00:40.749Z,64672
2019-04-30T10:05:38.971Z,82336
2019-04-30T10:10:35.038Z,73408
2019-04-30T10:15:31.383Z,84544
2019-04-30T10:20:27.949Z,82464
2019-04-30T10:25:23.987Z,76832
2019-04-30T10:30:21.202Z,78048
2019-04-30T10:35:18.380Z,61888
2019-04-30T10:40:15.424Z,51648
2019-04-30T10:45:12.215Z,73248
2019-04-30T10:50:09.902Z,92096
2019-04-30T10:55:09.333Z,69280
2019-04-30T11:00:04.752Z,73344
2019-04-30T11:05:01.300Z,82016
2019-04-30T11:09:58.873Z,84864
2019-04-30T11:14:54.994Z,69984
2019-04-30T11:19:51.782Z,67328
2019-04-30T11:24:58.825Z,85280
2019-04-30T11:29:49.586Z,76000
2019-04-30T11:34:46.522Z,84704
2019-04-30T11:39:43.006Z,79200
2019-04-30T11:44:40.347Z,74400
2019-04-30T11:49:35.871Z,79648
2019-04-30T11:54:33.297Z,83136
2019-04-30T11:59:29.924Z,91392
2019-04-30T12:04:26.262Z,85632
2019-04-30T12:09:22.478Z,79264
2019-04-30T12:14:18.237Z,15228
2019-04-30T12:19:13.704Z,25184
2019-04-30T12:24:08.089Z," 8216"
2019-04-30T12:29:05.064Z,15840
2019-04-30T12:33:59.667Z,11668
2019-04-30T12:38:55.240Z,10780
2019-04-30T12:43:52.116Z,13136
2019-04-30T12:48:49.403Z," 8252"
2019-04-30T12:53:44.963Z,18944
2019-04-30T12:58:40.403Z,75488
2019-04-30T13:03:39.954Z,72480
2019-04-30T13:08:36.871Z,31456
2019-04-30T13:13:33.040Z,66528
2019-04-30T13:18:29.672Z,34400
2019-04-30T13:23:25.911Z," 7300"
2019-04-30T13:28:21.467Z," 7224"
2019-04-30T13:33:20.262Z," 6216"
2019-04-30T13:38:15.867Z," 5808"
2019-04-30T13:43:11.436Z," 7124"
2019-04-30T13:48:08.799Z," 6692"
2019-04-30T13:53:03.947Z," 5452"
2019-04-30T13:57:59.425Z," 5460"
2019-04-30T14:02:55.390Z," 5400"
2019-04-30T14:07:51.162Z," 5428"
2019-04-30T14:12:47.955Z," 5184"
2019-04-30T14:17:43.473Z," 4908"
2019-04-30T14:22:40.303Z," 5380"
2019-04-30T14:27:48.547Z," 4968"
2019-04-30T14:32:36.460Z," 4756"
2019-04-30T14:37:33.214Z," 4644"
2019-04-30T14:42:29.851Z," 4508"
2019-04-30T14:47:26.778Z," 4320"
2019-04-30T14:52:23.173Z," 3968"
2019-04-30T14:57:18.758Z," 3872"
2019-04-30T15:02:14.920Z," 3716"
2019-04-30T15:07:11.081Z," 3768"
2019-04-30T15:12:06.826Z," 3672"
2019-04-30T15:17:02.942Z," 3460"
2019-04-30T15:22:00.985Z," 3356"
2019-04-30T15:26:58.340Z," 3336"
2019-04-30T15:31:54.415Z," 3172"
2019-04-30T15:36:51.203Z," 3076"
2019-04-30T15:41:46.857Z," 2988"
2019-04-30T15:46:42.700Z," 2904"
2019-04-30T15:51:38.696Z," 2868"
2019-04-30T15:56:39.973Z," 2824"
2019-04-30T16:01:35.541Z," 2792"
2019-04-30T16:06:31.560Z," 2712"
2019-04-30T16:11:29.437Z," 2632"
2019-04-30T16:16:24.714Z," 2568"
2019-04-30T16:21:21.969Z," 2504"
2019-04-30T16:26:17.880Z," 2464"
2019-04-30T16:31:13.515Z," 2404"
2019-04-30T16:36:10.722Z," 2352"
2019-04-30T16:41:06.283Z," 2340"
2019-04-30T16:46:03.050Z," 2280"
2019-04-30T16:50:58.728Z," 2240"
2019-04-30T16:55:54.616Z," 2196"
2019-04-30T17:00:50.922Z," 2124"
2019-04-30T17:05:49.887Z," 2072"
2019-04-30T17:10:45.132Z," 2004"
2019-04-30T17:15:40.784Z," 1920"
2019-04-30T17:20:38.571Z," 1840"
2019-04-30T17:25:34.001Z," 1752"
2019-04-30T17:30:30.835Z," 1664"
2019-04-30T17:35:26.509Z," 1580"
2019-04-30T17:40:26.466Z," 1488"
2019-04-30T17:45:21.440Z," 1400"
2019-04-30T17:50:18.765Z," 1300"
2019-04-30T17:55:14.036Z," 1204"
2019-04-30T18:00:16.906Z," 1108"
2019-04-30T18:05:11.114Z,"  992"
2019-04-30T18:10:08.767Z,"  880"
2019-04-30T18:15:04.228Z,"  768"
2019-04-30T18:19:59.883Z,"  656"
2019-04-30T18:24:55.783Z,"  552"
2019-04-30T18:29:51.907Z,"  456"
2019-04-30T18:34:49.099Z,"  360"
2019-04-30T18:39:44.289Z,"  276"
2019-04-30T18:44:40.938Z,"  204"
2019-04-30T18:49:39.370Z,"  140"
2019-04-30T18:54:35.362Z,"   88"
2019-04-30T18:59:32.674Z,"   52"
2019-04-30T19:04:28.840Z,"   24"
2019-04-30T19:09:24.364Z,"   12"
2019-04-30T19:14:20.440Z,"    8"
2019-04-30T19:19:16.369Z,"    0"
2019-04-30T19:24:12.718Z,"    0"
2019-04-30T19:29:09.557Z,"    0"
2019-04-30T19:34:06.096Z,"    0"
2019-04-30T19:39:02.365Z,"    0"
2019-04-30T19:43:57.935Z,"    0"
2019-04-30T19:48:54.783Z,"    0"
2019-04-30T19:53:50.759Z,"    0"
2019-04-30T19:58:55.679Z,"    0"
2019-04-30T20:03:46.227Z,"    0"
2019-04-30T20:08:41.970Z,"    0"
2019-04-30T20:13:37.656Z,"    0"
2019-04-30T20:18:33.412Z,"    0"
2019-04-30T20:23:29.261Z,"    0"
2019-04-30T20:28:25.103Z,"    0"
2019-04-30T20:33:20.961Z,"    0"
2019-04-30T20:38:16.715Z,"    0"
2019-04-30T20:43:13.018Z,"    0"
2019-04-30T20:48:09.036Z,"    0"
2019-04-30T20:53:05.200Z,"    0"
2019-04-30T20:58:00.889Z,"    0"
2019-04-30T21:02:59.772Z,"    0"
2019-04-30T21:07:54.800Z,"    0"
2019-04-30T21:12:50.624Z,"    0"
2019-04-30T21:17:48.369Z,"    0"
2019-04-30T21:22:45.532Z,"    0"
2019-04-30T21:27:41.239Z,"    0"
2019-04-30T21:32:38.295Z,"    0"
2019-04-30T21:37:33.853Z,"    0"
2019-04-30T21:42:29.827Z,"    0"
2019-04-30T21:47:25.531Z,"    0"
2019-04-30T21:52:21.026Z,"    0"
2019-04-30T21:57:17.947Z,"    0"
2019-04-30T22:02:14.529Z,"    0"
2019-04-30T22:07:11.109Z,"    0"
2019-04-30T22:12:06.500Z,"    0"
2019-04-30T22:17:01.998Z,"    0"
2019-04-30T22:21:59.453Z,"    0"
2019-04-30T22:26:56.278Z,"    0"
2019-04-30T22:31:51.404Z,"    0"
2019-04-30T22:36:48.938Z,"    0"
2019-04-30T22:41:43.854Z,"    0"
2019-04-30T22:46:39.656Z,"    0"
2019-04-30T22:51:35.547Z,"    0"
2019-04-30T22:56:33.151Z,"    0"
2019-04-30T23:01:28.808Z,"    0"
2019-04-30T23:06:24.363Z,"    0"
2019-04-30T23:11:21.306Z,"    0"
2019-04-30T23:16:17.879Z,"    0"
2019-04-30T23:21:14.558Z,"    0"
2019-04-30T23:26:10.040Z,"    0"
2019-04-30T23:31:05.641Z,"    0"
2019-04-30T23:36:01.400Z,"    0"
2019-04-30T23:40:57.073Z,"    0"
2019-04-30T23:45:52.895Z,"    0"
2019-04-30T23:50:48.791Z,"    0"
2019-04-30T23:55:44.596Z,"    0"
